sensor_id;sensor_type;location;lat;lon;timestamp;P1;durP1;ratioP1;P2;durP2;ratioP2
870;SDS011;422;51.280;7.236;2022-10-16T00:00:40;4.07;;;3.67;;
870;SDS011;422;51.280;7.236;2022-10-16T00:03:08;4.43;;;3.80;;
870;SDS011;422;51.280;7.236;2022-10-16T00:05:39;5.53;;;3.63;;
870;SDS011;422;51.280;7.236;2022-10-16T00:08:10;4.90;;;4.10;;
870;SDS011;422;51.280;7.236;2022-10-16T00:10:38;5.73;;;4.27;;
870;SDS011;422;51.280;7.236;2022-10-16T00:13:06;5.10;;;3.87;;
870;SDS011;422;51.280;7.236;2022-10-16T00:15:35;4.30;;;3.60;;
870;SDS011;422;51.280;7.236;2022-10-16T00:18:04;8.17;;;2.90;;
870;SDS011;422;51.280;7.236;2022-10-16T00:20:33;5.37;;;3.40;;
870;SDS011;422;51.280;7.236;2022-10-16T00:23:05;6.70;;;3.30;;
870;SDS011;422;51.280;7.236;2022-10-16T00:25:32;4.83;;;3.23;;
870;SDS011;422;51.280;7.236;2022-10-16T00:28:02;4.53;;;3.50;;
870;SDS011;422;51.280;7.236;2022-10-16T00:30:29;5.53;;;3.50;;
870;SDS011;422;51.280;7.236;2022-10-16T00:32:58;6.83;;;3.40;;
870;SDS011;422;51.280;7.236;2022-10-16T00:35:25;4.13;;;3.43;;
870;SDS011;422;51.280;7.236;2022-10-16T00:37:56;3.33;;;3.00;;
870;SDS011;422;51.280;7.236;2022-10-16T00:40:26;8.33;;;2.80;;
870;SDS011;422;51.280;7.236;2022-10-16T00:42:54;6.40;;;3.47;;
870;SDS011;422;51.280;7.236;2022-10-16T00:45:21;4.90;;;3.00;;
870;SDS011;422;51.280;7.236;2022-10-16T00:47:49;3.83;;;3.23;;
870;SDS011;422;51.280;7.236;2022-10-16T00:50:22;3.87;;;3.17;;
870;SDS011;422;51.280;7.236;2022-10-16T00:52:53;4.10;;;3.17;;
870;SDS011;422;51.280;7.236;2022-10-16T00:55:22;5.20;;;3.57;;
870;SDS011;422;51.280;7.236;2022-10-16T00:57:53;3.27;;;2.97;;
870;SDS011;422;51.280;7.236;2022-10-16T01:00:22;4.43;;;3.30;;
870;SDS011;422;51.280;7.236;2022-10-16T01:02:52;4.20;;;3.50;;
870;SDS011;422;51.280;7.236;2022-10-16T01:05:21;3.87;;;3.20;;
870;SDS011;422;51.280;7.236;2022-10-16T01:07:53;3.97;;;2.83;;
870;SDS011;422;51.280;7.236;2022-10-16T01:10:30;4.30;;;2.83;;
870;SDS011;422;51.280;7.236;2022-10-16T01:13:03;6.30;;;3.47;;
870;SDS011;422;51.280;7.236;2022-10-16T01:15:34;5.40;;;3.40;;
870;SDS011;422;51.280;7.236;2022-10-16T01:18:11;4.53;;;3.20;;
870;SDS011;422;51.280;7.236;2022-10-16T01:20:47;4.23;;;2.93;;
870;SDS011;422;51.280;7.236;2022-10-16T01:23:27;7.67;;;3.70;;
870;SDS011;422;51.280;7.236;2022-10-16T01:29:16;3.40;;;3.10;;
870;SDS011;422;51.280;7.236;2022-10-16T01:31:53;6.87;;;3.10;;
870;SDS011;422;51.280;7.236;2022-10-16T01:34:27;3.40;;;2.97;;
870;SDS011;422;51.280;7.236;2022-10-16T01:36:59;5.77;;;3.00;;
870;SDS011;422;51.280;7.236;2022-10-16T01:39:31;3.20;;;2.90;;
870;SDS011;422;51.280;7.236;2022-10-16T01:42:03;5.10;;;3.60;;
870;SDS011;422;51.280;7.236;2022-10-16T01:44:35;4.37;;;3.43;;
870;SDS011;422;51.280;7.236;2022-10-16T01:47:05;7.57;;;3.60;;
870;SDS011;422;51.280;7.236;2022-10-16T01:49:36;4.90;;;4.00;;
870;SDS011;422;51.280;7.236;2022-10-16T01:52:06;4.20;;;3.17;;
870;SDS011;422;51.280;7.236;2022-10-16T01:54:37;3.37;;;3.07;;
870;SDS011;422;51.280;7.236;2022-10-16T01:57:08;4.40;;;3.37;;
870;SDS011;422;51.280;7.236;2022-10-16T01:59:39;3.00;;;2.50;;
870;SDS011;422;51.280;7.236;2022-10-16T02:02:09;3.43;;;3.00;;
870;SDS011;422;51.280;7.236;2022-10-16T02:04:40;4.83;;;3.97;;
870;SDS011;422;51.280;7.236;2022-10-16T02:07:12;5.40;;;3.70;;
870;SDS011;422;51.280;7.236;2022-10-16T02:09:39;3.83;;;3.43;;
870;SDS011;422;51.280;7.236;2022-10-16T02:12:12;4.53;;;3.30;;
870;SDS011;422;51.280;7.236;2022-10-16T02:14:47;5.07;;;3.47;;
870;SDS011;422;51.280;7.236;2022-10-16T02:17:17;3.63;;;3.13;;
870;SDS011;422;51.280;7.236;2022-10-16T02:19:45;5.10;;;3.67;;
870;SDS011;422;51.280;7.236;2022-10-16T02:22:15;4.40;;;3.37;;
870;SDS011;422;51.280;7.236;2022-10-16T02:24:48;4.00;;;3.60;;
870;SDS011;422;51.280;7.236;2022-10-16T02:27:22;5.40;;;3.60;;
870;SDS011;422;51.280;7.236;2022-10-16T02:29:57;6.70;;;3.03;;
870;SDS011;422;51.280;7.236;2022-10-16T02:32:33;4.03;;;2.80;;
870;SDS011;422;51.280;7.236;2022-10-16T02:35:03;4.10;;;3.13;;
870;SDS011;422;51.280;7.236;2022-10-16T02:37:32;3.23;;;2.87;;
870;SDS011;422;51.280;7.236;2022-10-16T02:40:00;6.80;;;2.60;;
870;SDS011;422;51.280;7.236;2022-10-16T02:42:28;3.50;;;2.73;;
870;SDS011;422;51.280;7.236;2022-10-16T02:45:00;3.20;;;2.83;;
870;SDS011;422;51.280;7.236;2022-10-16T02:47:27;3.40;;;3.10;;
870;SDS011;422;51.280;7.236;2022-10-16T02:49:57;4.40;;;2.93;;
870;SDS011;422;51.280;7.236;2022-10-16T02:52:24;3.30;;;2.87;;
870;SDS011;422;51.280;7.236;2022-10-16T02:54:52;3.47;;;2.23;;
870;SDS011;422;51.280;7.236;2022-10-16T02:57:19;4.07;;;3.53;;
870;SDS011;422;51.280;7.236;2022-10-16T02:59:46;5.40;;;2.13;;
870;SDS011;422;51.280;7.236;2022-10-16T03:02:15;5.07;;;3.00;;
870;SDS011;422;51.280;7.236;2022-10-16T03:04:42;2.87;;;2.50;;
870;SDS011;422;51.280;7.236;2022-10-16T03:07:10;5.53;;;2.80;;
870;SDS011;422;51.280;7.236;2022-10-16T03:09:37;2.67;;;2.40;;
870;SDS011;422;51.280;7.236;2022-10-16T03:12:04;3.90;;;2.60;;
870;SDS011;422;51.280;7.236;2022-10-16T03:14:32;4.03;;;2.77;;
870;SDS011;422;51.280;7.236;2022-10-16T03:17:02;3.33;;;3.00;;
870;SDS011;422;51.280;7.236;2022-10-16T03:19:31;4.07;;;2.60;;
870;SDS011;422;51.280;7.236;2022-10-16T03:21:58;3.10;;;2.57;;
870;SDS011;422;51.280;7.236;2022-10-16T03:24:26;3.80;;;2.83;;
870;SDS011;422;51.280;7.236;2022-10-16T03:26:54;4.90;;;2.70;;
870;SDS011;422;51.280;7.236;2022-10-16T03:29:21;2.90;;;2.43;;
870;SDS011;422;51.280;7.236;2022-10-16T03:31:48;3.10;;;2.80;;
870;SDS011;422;51.280;7.236;2022-10-16T03:34:15;4.57;;;2.20;;
870;SDS011;422;51.280;7.236;2022-10-16T03:36:44;3.57;;;3.27;;
870;SDS011;422;51.280;7.236;2022-10-16T03:39:14;3.30;;;2.90;;
870;SDS011;422;51.280;7.236;2022-10-16T03:41:44;6.40;;;3.00;;
870;SDS011;422;51.280;7.236;2022-10-16T03:44:12;3.63;;;2.70;;
870;SDS011;422;51.280;7.236;2022-10-16T03:46:39;2.73;;;2.13;;
870;SDS011;422;51.280;7.236;2022-10-16T03:49:07;4.73;;;2.43;;
870;SDS011;422;51.280;7.236;2022-10-16T03:51:34;5.50;;;2.47;;
870;SDS011;422;51.280;7.236;2022-10-16T03:54:03;2.50;;;2.20;;
870;SDS011;422;51.280;7.236;2022-10-16T03:56:30;2.60;;;2.40;;
870;SDS011;422;51.280;7.236;2022-10-16T03:58:57;3.50;;;2.57;;
870;SDS011;422;51.280;7.236;2022-10-16T04:01:24;3.00;;;2.33;;
870;SDS011;422;51.280;7.236;2022-10-16T04:03:51;3.70;;;2.07;;
870;SDS011;422;51.280;7.236;2022-10-16T04:06:19;2.47;;;2.23;;
870;SDS011;422;51.280;7.236;2022-10-16T04:08:46;4.53;;;2.30;;
870;SDS011;422;51.280;7.236;2022-10-16T04:11:15;3.60;;;3.27;;
870;SDS011;422;51.280;7.236;2022-10-16T04:13:42;3.87;;;2.90;;
870;SDS011;422;51.280;7.236;2022-10-16T04:16:09;3.10;;;2.80;;
870;SDS011;422;51.280;7.236;2022-10-16T04:18:36;3.50;;;1.90;;
870;SDS011;422;51.280;7.236;2022-10-16T04:21:06;3.17;;;2.70;;
870;SDS011;422;51.280;7.236;2022-10-16T04:23:33;3.90;;;2.33;;
870;SDS011;422;51.280;7.236;2022-10-16T04:26:01;5.17;;;2.50;;
870;SDS011;422;51.280;7.236;2022-10-16T04:28:30;3.23;;;2.53;;
870;SDS011;422;51.280;7.236;2022-10-16T04:30:57;4.20;;;2.30;;
870;SDS011;422;51.280;7.236;2022-10-16T04:33:24;2.50;;;2.30;;
870;SDS011;422;51.280;7.236;2022-10-16T04:35:56;4.20;;;2.67;;
870;SDS011;422;51.280;7.236;2022-10-16T04:38:23;2.27;;;2.07;;
870;SDS011;422;51.280;7.236;2022-10-16T04:40:51;2.67;;;2.47;;
870;SDS011;422;51.280;7.236;2022-10-16T04:43:18;5.43;;;2.63;;
870;SDS011;422;51.280;7.236;2022-10-16T04:45:48;4.40;;;2.27;;
870;SDS011;422;51.280;7.236;2022-10-16T04:48:17;4.03;;;2.60;;
870;SDS011;422;51.280;7.236;2022-10-16T04:50:45;3.50;;;2.50;;
870;SDS011;422;51.280;7.236;2022-10-16T04:53:15;2.60;;;2.33;;
870;SDS011;422;51.280;7.236;2022-10-16T04:55:44;2.97;;;1.97;;
870;SDS011;422;51.280;7.236;2022-10-16T04:58:11;3.63;;;2.60;;
870;SDS011;422;51.280;7.236;2022-10-16T05:00:41;3.27;;;2.60;;
870;SDS011;422;51.280;7.236;2022-10-16T05:03:10;3.50;;;2.50;;
870;SDS011;422;51.280;7.236;2022-10-16T05:05:41;5.60;;;2.00;;
870;SDS011;422;51.280;7.236;2022-10-16T05:08:09;2.97;;;2.67;;
870;SDS011;422;51.280;7.236;2022-10-16T05:10:37;6.87;;;3.23;;
870;SDS011;422;51.280;7.236;2022-10-16T05:13:04;4.43;;;2.57;;
870;SDS011;422;51.280;7.236;2022-10-16T05:15:34;2.50;;;2.20;;
870;SDS011;422;51.280;7.236;2022-10-16T05:18:03;2.87;;;2.57;;
870;SDS011;422;51.280;7.236;2022-10-16T05:20:32;3.03;;;2.73;;
870;SDS011;422;51.280;7.236;2022-10-16T05:23:00;4.50;;;2.77;;
870;SDS011;422;51.280;7.236;2022-10-16T05:25:27;2.90;;;2.57;;
870;SDS011;422;51.280;7.236;2022-10-16T05:27:54;4.20;;;2.30;;
870;SDS011;422;51.280;7.236;2022-10-16T05:30:21;2.60;;;2.40;;
870;SDS011;422;51.280;7.236;2022-10-16T05:32:51;3.10;;;2.43;;
870;SDS011;422;51.280;7.236;2022-10-16T05:35:18;5.37;;;4.37;;
870;SDS011;422;51.280;7.236;2022-10-16T05:37:47;3.10;;;2.77;;
870;SDS011;422;51.280;7.236;2022-10-16T05:40:15;5.40;;;2.37;;
870;SDS011;422;51.280;7.236;2022-10-16T05:42:42;3.60;;;2.90;;
870;SDS011;422;51.280;7.236;2022-10-16T05:45:10;3.20;;;2.90;;
870;SDS011;422;51.280;7.236;2022-10-16T05:47:40;3.93;;;2.33;;
870;SDS011;422;51.280;7.236;2022-10-16T05:50:07;5.63;;;2.90;;
870;SDS011;422;51.280;7.236;2022-10-16T05:52:35;3.07;;;2.77;;
870;SDS011;422;51.280;7.236;2022-10-16T05:55:04;4.00;;;2.50;;
870;SDS011;422;51.280;7.236;2022-10-16T05:57:32;8.70;;;3.70;;
870;SDS011;422;51.280;7.236;2022-10-16T05:59:59;4.33;;;2.90;;
870;SDS011;422;51.280;7.236;2022-10-16T06:02:26;3.80;;;2.70;;
870;SDS011;422;51.280;7.236;2022-10-16T06:04:54;3.20;;;2.77;;
870;SDS011;422;51.280;7.236;2022-10-16T06:07:21;3.70;;;2.30;;
870;SDS011;422;51.280;7.236;2022-10-16T06:09:49;3.50;;;2.73;;
870;SDS011;422;51.280;7.236;2022-10-16T06:12:20;8.00;;;2.87;;
870;SDS011;422;51.280;7.236;2022-10-16T06:14:48;4.47;;;2.40;;
870;SDS011;422;51.280;7.236;2022-10-16T06:17:15;3.30;;;2.80;;
870;SDS011;422;51.280;7.236;2022-10-16T06:19:43;5.73;;;3.10;;
870;SDS011;422;51.280;7.236;2022-10-16T06:22:10;3.33;;;2.60;;
870;SDS011;422;51.280;7.236;2022-10-16T06:24:37;3.30;;;2.90;;
870;SDS011;422;51.280;7.236;2022-10-16T06:27:07;3.67;;;2.90;;
870;SDS011;422;51.280;7.236;2022-10-16T06:29:36;3.20;;;2.80;;
870;SDS011;422;51.280;7.236;2022-10-16T06:32:04;3.63;;;2.70;;
870;SDS011;422;51.280;7.236;2022-10-16T06:34:32;3.73;;;2.90;;
870;SDS011;422;51.280;7.236;2022-10-16T06:36:59;3.17;;;2.80;;
870;SDS011;422;51.280;7.236;2022-10-16T06:39:26;4.70;;;2.50;;
870;SDS011;422;51.280;7.236;2022-10-16T06:41:53;4.17;;;2.97;;
870;SDS011;422;51.280;7.236;2022-10-16T06:44:21;4.13;;;2.83;;
870;SDS011;422;51.280;7.236;2022-10-16T06:46:49;5.53;;;3.17;;
870;SDS011;422;51.280;7.236;2022-10-16T06:49:20;2.40;;;2.20;;
870;SDS011;422;51.280;7.236;2022-10-16T06:51:48;2.90;;;2.40;;
870;SDS011;422;51.280;7.236;2022-10-16T06:54:15;3.90;;;3.00;;
870;SDS011;422;51.280;7.236;2022-10-16T06:56:42;2.40;;;2.20;;
870;SDS011;422;51.280;7.236;2022-10-16T06:59:10;3.20;;;2.90;;
870;SDS011;422;51.280;7.236;2022-10-16T07:01:37;3.10;;;2.73;;
870;SDS011;422;51.280;7.236;2022-10-16T07:04:06;3.60;;;2.60;;
870;SDS011;422;51.280;7.236;2022-10-16T07:06:34;6.17;;;2.73;;
870;SDS011;422;51.280;7.236;2022-10-16T07:09:02;3.17;;;2.60;;
870;SDS011;422;51.280;7.236;2022-10-16T07:11:30;3.20;;;2.03;;
870;SDS011;422;51.280;7.236;2022-10-16T07:13:58;4.10;;;2.80;;
870;SDS011;422;51.280;7.236;2022-10-16T07:16:25;3.80;;;2.30;;
870;SDS011;422;51.280;7.236;2022-10-16T07:18:54;4.03;;;2.60;;
870;SDS011;422;51.280;7.236;2022-10-16T07:21:28;4.47;;;3.20;;
870;SDS011;422;51.280;7.236;2022-10-16T07:23:57;3.00;;;2.07;;
870;SDS011;422;51.280;7.236;2022-10-16T07:26:26;4.17;;;2.70;;
870;SDS011;422;51.280;7.236;2022-10-16T07:28:55;2.90;;;2.33;;
870;SDS011;422;51.280;7.236;2022-10-16T07:31:26;3.43;;;2.60;;
870;SDS011;422;51.280;7.236;2022-10-16T07:33:53;6.17;;;2.93;;
870;SDS011;422;51.280;7.236;2022-10-16T07:36:21;2.90;;;2.30;;
870;SDS011;422;51.280;7.236;2022-10-16T07:38:49;2.87;;;2.57;;
870;SDS011;422;51.280;7.236;2022-10-16T07:41:18;2.90;;;2.60;;
870;SDS011;422;51.280;7.236;2022-10-16T07:43:46;6.00;;;2.77;;
870;SDS011;422;51.280;7.236;2022-10-16T07:46:17;2.87;;;2.60;;
870;SDS011;422;51.280;7.236;2022-10-16T07:48:46;5.77;;;2.80;;
870;SDS011;422;51.280;7.236;2022-10-16T07:51:14;3.87;;;2.27;;
870;SDS011;422;51.280;7.236;2022-10-16T07:53:42;3.50;;;2.60;;
870;SDS011;422;51.280;7.236;2022-10-16T07:56:20;3.90;;;2.73;;
870;SDS011;422;51.280;7.236;2022-10-16T07:58:51;3.07;;;2.60;;
870;SDS011;422;51.280;7.236;2022-10-16T08:01:18;3.40;;;3.10;;
870;SDS011;422;51.280;7.236;2022-10-16T08:03:46;3.17;;;2.60;;
870;SDS011;422;51.280;7.236;2022-10-16T08:06:17;4.20;;;3.07;;
870;SDS011;422;51.280;7.236;2022-10-16T08:08:47;4.33;;;2.93;;
870;SDS011;422;51.280;7.236;2022-10-16T08:11:16;3.87;;;2.43;;
870;SDS011;422;51.280;7.236;2022-10-16T08:13:46;5.33;;;2.70;;
870;SDS011;422;51.280;7.236;2022-10-16T08:16:13;3.07;;;2.70;;
870;SDS011;422;51.280;7.236;2022-10-16T08:18:40;2.90;;;2.20;;
870;SDS011;422;51.280;7.236;2022-10-16T08:21:08;3.03;;;2.13;;
870;SDS011;422;51.280;7.236;2022-10-16T08:23:39;3.07;;;2.30;;
870;SDS011;422;51.280;7.236;2022-10-16T08:26:09;3.30;;;2.40;;
870;SDS011;422;51.280;7.236;2022-10-16T08:28:38;5.10;;;2.43;;
870;SDS011;422;51.280;7.236;2022-10-16T08:31:06;3.40;;;2.67;;
870;SDS011;422;51.280;7.236;2022-10-16T08:33:35;3.70;;;2.80;;
870;SDS011;422;51.280;7.236;2022-10-16T08:36:05;2.97;;;2.30;;
870;SDS011;422;51.280;7.236;2022-10-16T08:38:35;3.33;;;2.60;;
870;SDS011;422;51.280;7.236;2022-10-16T08:41:13;3.67;;;2.40;;
870;SDS011;422;51.280;7.236;2022-10-16T08:43:58;3.67;;;2.40;;
870;SDS011;422;51.280;7.236;2022-10-16T08:46:35;4.30;;;2.40;;
870;SDS011;422;51.280;7.236;2022-10-16T08:49:10;3.10;;;2.20;;
870;SDS011;422;51.280;7.236;2022-10-16T08:51:42;5.37;;;2.47;;
870;SDS011;422;51.280;7.236;2022-10-16T08:54:18;2.43;;;1.97;;
870;SDS011;422;51.280;7.236;2022-10-16T08:56:54;3.50;;;2.53;;
870;SDS011;422;51.280;7.236;2022-10-16T08:59:23;6.43;;;2.60;;
870;SDS011;422;51.280;7.236;2022-10-16T09:01:50;3.63;;;3.00;;
870;SDS011;422;51.280;7.236;2022-10-16T09:07:20;4.00;;;2.00;;
870;SDS011;422;51.280;7.236;2022-10-16T09:10:08;3.20;;;2.23;;
870;SDS011;422;51.280;7.236;2022-10-16T09:12:48;3.27;;;2.20;;
870;SDS011;422;51.280;7.236;2022-10-16T09:15:27;2.63;;;2.13;;
870;SDS011;422;51.280;7.236;2022-10-16T09:18:00;8.83;;;2.50;;
870;SDS011;422;51.280;7.236;2022-10-16T09:20:39;8.23;;;2.10;;
870;SDS011;422;51.280;7.236;2022-10-16T09:23:16;2.67;;;2.13;;
870;SDS011;422;51.280;7.236;2022-10-16T09:25:46;3.77;;;2.30;;
870;SDS011;422;51.280;7.236;2022-10-16T09:28:15;4.20;;;1.77;;
870;SDS011;422;51.280;7.236;2022-10-16T09:30:46;2.93;;;1.90;;
870;SDS011;422;51.280;7.236;2022-10-16T09:33:17;2.60;;;1.80;;
870;SDS011;422;51.280;7.236;2022-10-16T09:35:47;4.03;;;2.37;;
870;SDS011;422;51.280;7.236;2022-10-16T09:38:25;5.03;;;2.50;;
870;SDS011;422;51.280;7.236;2022-10-16T09:40:54;3.43;;;2.00;;
870;SDS011;422;51.280;7.236;2022-10-16T09:43:24;2.87;;;2.47;;
870;SDS011;422;51.280;7.236;2022-10-16T09:45:58;3.93;;;2.60;;
870;SDS011;422;51.280;7.236;2022-10-16T09:48:31;3.57;;;2.20;;
870;SDS011;422;51.280;7.236;2022-10-16T09:51:06;3.33;;;2.27;;
870;SDS011;422;51.280;7.236;2022-10-16T09:53:46;4.73;;;2.30;;
870;SDS011;422;51.280;7.236;2022-10-16T09:56:21;3.27;;;2.10;;
870;SDS011;422;51.280;7.236;2022-10-16T09:58:50;3.43;;;2.10;;
870;SDS011;422;51.280;7.236;2022-10-16T10:01:19;4.57;;;2.10;;
870;SDS011;422;51.280;7.236;2022-10-16T10:03:55;3.20;;;2.13;;
870;SDS011;422;51.280;7.236;2022-10-16T10:06:27;2.80;;;2.10;;
870;SDS011;422;51.280;7.236;2022-10-16T10:08:56;3.23;;;2.23;;
870;SDS011;422;51.280;7.236;2022-10-16T10:11:39;2.30;;;1.97;;
870;SDS011;422;51.280;7.236;2022-10-16T10:17:09;2.20;;;1.90;;
870;SDS011;422;51.280;7.236;2022-10-16T10:19:48;4.20;;;2.73;;
870;SDS011;422;51.280;7.236;2022-10-16T10:22:24;2.83;;;2.53;;
870;SDS011;422;51.280;7.236;2022-10-16T10:24:54;3.27;;;2.10;;
870;SDS011;422;51.280;7.236;2022-10-16T10:27:24;3.07;;;1.93;;
870;SDS011;422;51.280;7.236;2022-10-16T10:30:00;2.93;;;1.90;;
870;SDS011;422;51.280;7.236;2022-10-16T10:32:44;3.60;;;1.93;;
870;SDS011;422;51.280;7.236;2022-10-16T10:35:21;2.53;;;2.27;;
870;SDS011;422;51.280;7.236;2022-10-16T10:37:57;3.83;;;2.20;;
870;SDS011;422;51.280;7.236;2022-10-16T10:40:42;5.67;;;2.23;;
870;SDS011;422;51.280;7.236;2022-10-16T10:43:21;4.53;;;2.47;;
870;SDS011;422;51.280;7.236;2022-10-16T10:46:01;4.87;;;2.30;;
870;SDS011;422;51.280;7.236;2022-10-16T10:48:47;3.40;;;2.20;;
870;SDS011;422;51.280;7.236;2022-10-16T10:51:38;2.80;;;2.50;;
870;SDS011;422;51.280;7.236;2022-10-16T10:54:14;4.10;;;1.90;;
870;SDS011;422;51.280;7.236;2022-10-16T10:56:51;3.13;;;2.10;;
870;SDS011;422;51.280;7.236;2022-10-16T11:02:21;2.50;;;1.93;;
870;SDS011;422;51.280;7.236;2022-10-16T11:07:57;4.00;;;2.07;;
870;SDS011;422;51.280;7.236;2022-10-16T11:10:30;3.60;;;2.10;;
870;SDS011;422;51.280;7.236;2022-10-16T11:13:10;4.20;;;2.10;;
870;SDS011;422;51.280;7.236;2022-10-16T11:15:46;2.90;;;2.00;;
870;SDS011;422;51.280;7.236;2022-10-16T11:18:18;5.17;;;2.30;;
870;SDS011;422;51.280;7.236;2022-10-16T11:20:53;2.00;;;1.73;;
870;SDS011;422;51.280;7.236;2022-10-16T11:23:27;2.80;;;2.03;;
870;SDS011;422;51.280;7.236;2022-10-16T11:25:57;3.13;;;1.70;;
870;SDS011;422;51.280;7.236;2022-10-16T11:28:31;4.40;;;2.17;;
870;SDS011;422;51.280;7.236;2022-10-16T11:31:05;2.93;;;1.60;;
870;SDS011;422;51.280;7.236;2022-10-16T11:33:38;3.40;;;1.77;;
870;SDS011;422;51.280;7.236;2022-10-16T11:36:12;3.17;;;1.80;;
870;SDS011;422;51.280;7.236;2022-10-16T11:38:46;3.50;;;2.13;;
870;SDS011;422;51.280;7.236;2022-10-16T11:41:24;2.73;;;2.00;;
870;SDS011;422;51.280;7.236;2022-10-16T11:43:58;3.30;;;1.90;;
870;SDS011;422;51.280;7.236;2022-10-16T11:46:42;7.10;;;1.77;;
870;SDS011;422;51.280;7.236;2022-10-16T11:49:20;3.20;;;1.80;;
870;SDS011;422;51.280;7.236;2022-10-16T11:51:54;3.23;;;2.30;;
870;SDS011;422;51.280;7.236;2022-10-16T11:54:31;2.47;;;1.70;;
870;SDS011;422;51.280;7.236;2022-10-16T11:57:14;2.17;;;1.50;;
870;SDS011;422;51.280;7.236;2022-10-16T11:59:46;2.40;;;1.73;;
870;SDS011;422;51.280;7.236;2022-10-16T12:02:26;2.20;;;1.60;;
870;SDS011;422;51.280;7.236;2022-10-16T12:05:05;2.57;;;1.80;;
870;SDS011;422;51.280;7.236;2022-10-16T12:07:46;2.73;;;1.83;;
870;SDS011;422;51.280;7.236;2022-10-16T12:10:24;2.43;;;1.70;;
870;SDS011;422;51.280;7.236;2022-10-16T12:12:58;4.10;;;1.77;;
870;SDS011;422;51.280;7.236;2022-10-16T12:15:26;2.10;;;1.90;;
870;SDS011;422;51.280;7.236;2022-10-16T12:17:55;5.33;;;2.10;;
870;SDS011;422;51.280;7.236;2022-10-16T12:20:26;1.80;;;1.57;;
870;SDS011;422;51.280;7.236;2022-10-16T12:22:59;2.13;;;1.70;;
870;SDS011;422;51.280;7.236;2022-10-16T12:25:33;3.03;;;1.70;;
870;SDS011;422;51.280;7.236;2022-10-16T12:28:03;2.03;;;1.80;;
870;SDS011;422;51.280;7.236;2022-10-16T12:30:33;2.27;;;1.63;;
870;SDS011;422;51.280;7.236;2022-10-16T12:33:05;2.10;;;1.87;;
870;SDS011;422;51.280;7.236;2022-10-16T12:35:46;4.07;;;1.90;;
870;SDS011;422;51.280;7.236;2022-10-16T12:38:17;2.80;;;1.67;;
870;SDS011;422;51.280;7.236;2022-10-16T12:40:55;1.87;;;1.77;;
870;SDS011;422;51.280;7.236;2022-10-16T12:43:28;3.37;;;1.90;;
870;SDS011;422;51.280;7.236;2022-10-16T12:46:04;3.00;;;2.03;;
870;SDS011;422;51.280;7.236;2022-10-16T12:48:47;3.33;;;1.90;;
870;SDS011;422;51.280;7.236;2022-10-16T12:51:24;2.60;;;1.70;;
870;SDS011;422;51.280;7.236;2022-10-16T12:54:01;2.90;;;1.90;;
870;SDS011;422;51.280;7.236;2022-10-16T12:56:35;2.47;;;2.27;;
870;SDS011;422;51.280;7.236;2022-10-16T12:59:15;2.50;;;1.80;;
870;SDS011;422;51.280;7.236;2022-10-16T13:01:55;2.27;;;1.90;;
870;SDS011;422;51.280;7.236;2022-10-16T13:04:40;5.50;;;2.70;;
870;SDS011;422;51.280;7.236;2022-10-16T13:07:21;3.03;;;2.03;;
870;SDS011;422;51.280;7.236;2022-10-16T13:10:05;3.20;;;2.23;;
870;SDS011;422;51.280;7.236;2022-10-16T13:15:41;3.70;;;2.10;;
870;SDS011;422;51.280;7.236;2022-10-16T13:18:21;2.33;;;2.13;;
870;SDS011;422;51.280;7.236;2022-10-16T13:21:02;2.70;;;2.50;;
870;SDS011;422;51.280;7.236;2022-10-16T13:23:42;2.40;;;2.20;;
870;SDS011;422;51.280;7.236;2022-10-16T13:26:21;3.27;;;2.10;;
870;SDS011;422;51.280;7.236;2022-10-16T13:29:00;2.90;;;2.60;;
870;SDS011;422;51.280;7.236;2022-10-16T13:31:32;3.33;;;2.30;;
870;SDS011;422;51.280;7.236;2022-10-16T13:34:00;2.10;;;1.90;;
870;SDS011;422;51.280;7.236;2022-10-16T13:36:30;2.00;;;1.80;;
870;SDS011;422;51.280;7.236;2022-10-16T13:39:12;3.50;;;1.80;;
870;SDS011;422;51.280;7.236;2022-10-16T13:41:42;2.80;;;1.83;;
870;SDS011;422;51.280;7.236;2022-10-16T13:44:14;2.97;;;1.90;;
870;SDS011;422;51.280;7.236;2022-10-16T13:46:47;2.17;;;1.67;;
870;SDS011;422;51.280;7.236;2022-10-16T13:49:25;3.17;;;2.37;;
870;SDS011;422;51.280;7.236;2022-10-16T13:51:55;2.53;;;2.23;;
870;SDS011;422;51.280;7.236;2022-10-16T13:54:23;3.37;;;2.50;;
870;SDS011;422;51.280;7.236;2022-10-16T13:56:51;2.30;;;1.80;;
870;SDS011;422;51.280;7.236;2022-10-16T13:59:24;3.63;;;2.50;;
870;SDS011;422;51.280;7.236;2022-10-16T14:01:54;2.90;;;2.30;;
870;SDS011;422;51.280;7.236;2022-10-16T14:04:23;3.70;;;1.97;;
870;SDS011;422;51.280;7.236;2022-10-16T14:06:54;2.20;;;2.00;;
870;SDS011;422;51.280;7.236;2022-10-16T14:09:22;3.97;;;2.20;;
870;SDS011;422;51.280;7.236;2022-10-16T14:11:52;2.67;;;1.60;;
870;SDS011;422;51.280;7.236;2022-10-16T14:14:22;4.93;;;2.00;;
870;SDS011;422;51.280;7.236;2022-10-16T14:16:53;1.97;;;1.40;;
870;SDS011;422;51.280;7.236;2022-10-16T14:19:22;2.00;;;1.70;;
870;SDS011;422;51.280;7.236;2022-10-16T14:21:52;2.57;;;1.60;;
870;SDS011;422;51.280;7.236;2022-10-16T14:24:24;3.60;;;2.30;;
870;SDS011;422;51.280;7.236;2022-10-16T14:26:53;2.90;;;1.37;;
870;SDS011;422;51.280;7.236;2022-10-16T14:29:26;4.00;;;2.00;;
870;SDS011;422;51.280;7.236;2022-10-16T14:31:58;3.57;;;1.63;;
870;SDS011;422;51.280;7.236;2022-10-16T14:34:27;1.90;;;1.60;;
870;SDS011;422;51.280;7.236;2022-10-16T14:36:59;1.87;;;1.67;;
870;SDS011;422;51.280;7.236;2022-10-16T14:39:32;2.10;;;1.90;;
870;SDS011;422;51.280;7.236;2022-10-16T14:42:01;1.93;;;1.30;;
870;SDS011;422;51.280;7.236;2022-10-16T14:44:31;4.90;;;1.90;;
870;SDS011;422;51.280;7.236;2022-10-16T14:47:06;2.40;;;1.90;;
870;SDS011;422;51.280;7.236;2022-10-16T14:49:35;2.30;;;1.70;;
870;SDS011;422;51.280;7.236;2022-10-16T14:52:04;2.30;;;2.10;;
870;SDS011;422;51.280;7.236;2022-10-16T14:54:35;2.37;;;1.90;;
870;SDS011;422;51.280;7.236;2022-10-16T14:57:02;2.43;;;1.70;;
870;SDS011;422;51.280;7.236;2022-10-16T14:59:34;2.20;;;1.67;;
870;SDS011;422;51.280;7.236;2022-10-16T15:02:09;1.73;;;1.53;;
870;SDS011;422;51.280;7.236;2022-10-16T15:04:46;2.33;;;1.53;;
870;SDS011;422;51.280;7.236;2022-10-16T15:07:16;3.00;;;1.50;;
870;SDS011;422;51.280;7.236;2022-10-16T15:09:46;1.93;;;1.73;;
870;SDS011;422;51.280;7.236;2022-10-16T15:12:13;2.27;;;1.57;;
870;SDS011;422;51.280;7.236;2022-10-16T15:14:44;1.93;;;1.80;;
870;SDS011;422;51.280;7.236;2022-10-16T15:17:14;2.03;;;1.77;;
870;SDS011;422;51.280;7.236;2022-10-16T15:19:41;2.50;;;1.87;;
870;SDS011;422;51.280;7.236;2022-10-16T15:22:11;5.00;;;1.93;;
870;SDS011;422;51.280;7.236;2022-10-16T15:24:38;2.40;;;1.70;;
870;SDS011;422;51.280;7.236;2022-10-16T15:27:05;2.37;;;1.50;;
870;SDS011;422;51.280;7.236;2022-10-16T15:29:37;2.10;;;1.50;;
870;SDS011;422;51.280;7.236;2022-10-16T15:32:06;2.60;;;1.90;;
870;SDS011;422;51.280;7.236;2022-10-16T15:34:35;1.60;;;1.30;;
870;SDS011;422;51.280;7.236;2022-10-16T15:37:02;2.10;;;1.87;;
870;SDS011;422;51.280;7.236;2022-10-16T15:39:30;2.20;;;1.73;;
870;SDS011;422;51.280;7.236;2022-10-16T15:41:57;3.13;;;1.80;;
870;SDS011;422;51.280;7.236;2022-10-16T15:44:24;2.20;;;1.80;;
870;SDS011;422;51.280;7.236;2022-10-16T15:46:55;2.27;;;2.07;;
870;SDS011;422;51.280;7.236;2022-10-16T15:49:26;3.07;;;1.90;;
870;SDS011;422;51.280;7.236;2022-10-16T15:51:53;4.27;;;3.57;;
870;SDS011;422;51.280;7.236;2022-10-16T15:54:23;5.07;;;1.90;;
870;SDS011;422;51.280;7.236;2022-10-16T15:56:53;2.60;;;1.90;;
870;SDS011;422;51.280;7.236;2022-10-16T15:59:20;2.53;;;2.00;;
870;SDS011;422;51.280;7.236;2022-10-16T16:01:58;2.67;;;2.07;;
870;SDS011;422;51.280;7.236;2022-10-16T16:04:27;2.70;;;2.43;;
870;SDS011;422;51.280;7.236;2022-10-16T16:06:56;2.23;;;2.03;;
870;SDS011;422;51.280;7.236;2022-10-16T16:09:26;3.37;;;2.40;;
870;SDS011;422;51.280;7.236;2022-10-16T16:11:54;3.10;;;1.97;;
870;SDS011;422;51.280;7.236;2022-10-16T16:14:24;3.60;;;2.23;;
870;SDS011;422;51.280;7.236;2022-10-16T16:16:53;2.90;;;1.90;;
870;SDS011;422;51.280;7.236;2022-10-16T16:19:20;3.27;;;2.10;;
870;SDS011;422;51.280;7.236;2022-10-16T16:21:49;4.83;;;1.97;;
870;SDS011;422;51.280;7.236;2022-10-16T16:24:17;2.37;;;2.17;;
870;SDS011;422;51.280;7.236;2022-10-16T16:26:45;2.83;;;1.90;;